Time;durP1;ratioP1;P1;durP2;ratioP2;P2;SDS_P1;SDS_P2;PMS_P1;PMS_P2;Temp;Humidity;BMP_temperature;BMP_pressure;BME280_temperature;BME280_humidity;BME280_pressure;Samples;Min_cycle;Max_cycle;Signal;HPM_P1;HPM_P2
2022/08/01 00:00:28;;;;;;;5.75;4.90;;;;;;;;;;4893895;29;20064;-76
2022/08/01 00:02:54;;;;;;;7.70;5.15;;;;;;;;;;4880051;29;20033;-75
2022/08/01 00:05:20;;;;;;;6.07;5.47;;;;;;;;;;4893865;29;20112;-77
2022/08/01 00:07:47;;;;;;;5.30;4.80;;;;;;;;;;4881396;29;20459;-75
2022/08/01 00:10:14;;;;;;;6.50;5.80;;;;;;;;;;4897856;29;20497;-75
2022/08/01 00:12:41;;;;;;;6.63;5.40;;;;;;;;;;4883389;29;20025;-76
2022/08/01 00:15:08;;;;;;;6.70;5.40;;;;;;;;;;4897764;29;20093;-76
2022/08/01 00:17:35;;;;;;;9.35;5.68;;;;;;;;;;4897737;29;20483;-76
2022/08/01 00:20:03;;;;;;;10.30;5.90;;;;;;;;;;4883246;29;20036;-76
2022/08/01 00:22:29;;;;;;;6.93;5.25;;;;;;;;;;4897593;29;20079;-76
2022/08/01 00:24:55;;;;;;;6.50;5.13;;;;;;;;;;4883180;29;20251;-75
2022/08/01 00:27:21;;;;;;;7.75;5.30;;;;;;;;;;4883659;29;20028;-75
2022/08/01 00:29:47;;;;;;;6.32;4.75;;;;;;;;;;4883104;29;20386;-79
2022/08/01 00:32:13;;;;;;;8.40;5.50;;;;;;;;;;4883060;29;20371;-76
2022/08/01 00:34:39;;;;;;;6.60;5.38;;;;;;;;;;4897397;29;20032;-75
2022/08/01 00:37:06;;;;;;;5.13;4.63;;;;;;;;;;4898178;29;20025;-76
2022/08/01 00:39:33;;;;;;;5.78;4.50;;;;;;;;;;4883492;29;20032;-76
2022/08/01 00:41:59;;;;;;;5.13;4.50;;;;;;;;;;4897234;29;20036;-75
2022/08/01 00:44:25;;;;;;;9.20;4.60;;;;;;;;;;4897292;29;20065;-76
2022/08/01 00:46:51;;;;;;;6.15;5.18;;;;;;;;;;4897215;29;20047;-76
2022/08/01 00:49:17;;;;;;;6.93;4.88;;;;;;;;;;4897140;29;20435;-78
2022/08/01 00:51:43;;;;;;;8.20;4.47;;;;;;;;;;4897127;29;20029;-76
2022/08/01 00:54:09;;;;;;;6.57;4.53;;;;;;;;;;4897085;29;20029;-75
2022/08/01 00:56:36;;;;;;;6.55;4.68;;;;;;;;;;4897013;29;20053;-79
2022/08/01 00:59:05;;;;;;;5.43;4.90;;;;;;;;;;4882877;29;20029;-76
2022/08/01 01:01:31;;;;;;;6.28;5.18;;;;;;;;;;4896895;29;20029;-75
2022/08/01 01:03:58;;;;;;;6.43;4.75;;;;;;;;;;4882471;29;20044;-79
2022/08/01 01:06:27;;;;;;;8.00;4.65;;;;;;;;;;4896916;29;20025;-76
2022/08/01 01:08:53;;;;;;;6.53;4.90;;;;;;;;;;4882974;29;20035;-76
2022/08/01 01:11:28;;;;;;;7.22;5.38;;;;;;;;;;4882789;29;20032;-75
2022/08/01 01:13:58;;;;;;;5.15;4.63;;;;;;;;;;4896742;29;20029;-76
2022/08/01 01:16:25;;;;;;;5.93;4.63;;;;;;;;;;4896712;29;20037;-75
2022/08/01 01:18:53;;;;;;;4.88;4.38;;;;;;;;;;4882265;29;20081;-76
2022/08/01 01:21:20;;;;;;;5.72;4.75;;;;;;;;;;4896471;29;20074;-75
2022/08/01 01:23:55;;;;;;;5.18;4.68;;;;;;;;;;4882449;29;20075;-75
2022/08/01 01:26:29;;;;;;;6.90;4.60;;;;;;;;;;4896458;29;20501;-77
2022/08/01 01:29:02;;;;;;;7.00;4.68;;;;;;;;;;4896357;29;20533;-76
2022/08/01 01:31:29;;;;;;;5.07;4.50;;;;;;;;;;4897236;29;20037;-76
2022/08/01 01:33:58;;;;;;;6.60;4.85;;;;;;;;;;4896411;29;20040;-76
2022/08/01 01:36:26;;;;;;;5.47;4.55;;;;;;;;;;4896692;29;20080;-79
2022/08/01 01:38:54;;;;;;;4.63;4.22;;;;;;;;;;4896269;29;20032;-76
2022/08/01 01:41:20;;;;;;;5.95;4.88;;;;;;;;;;4896271;29;20402;-75
2022/08/01 01:43:47;;;;;;;5.10;4.60;;;;;;;;;;4896165;29;20487;-75
2022/08/01 01:46:16;;;;;;;6.40;5.43;;;;;;;;;;4882297;29;20029;-77
2022/08/01 01:48:44;;;;;;;6.20;5.60;;;;;;;;;;4881758;29;20065;-75
2022/08/01 01:51:11;;;;;;;7.18;5.65;;;;;;;;;;4882165;29;20085;-75
2022/08/01 01:53:38;;;;;;;7.90;5.68;;;;;;;;;;4896033;29;20029;-76
2022/08/01 01:56:04;;;;;;;5.32;4.78;;;;;;;;;;4896047;29;20077;-75
2022/08/01 01:58:32;;;;;;;5.47;4.97;;;;;;;;;;4895898;29;20069;-76
2022/08/01 02:01:01;;;;;;;6.57;5.97;;;;;;;;;;4895921;29;20056;-76
2022/08/01 02:03:28;;;;;;;5.93;5.10;;;;;;;;;;4895745;29;20068;-75
2022/08/01 02:05:55;;;;;;;5.45;4.95;;;;;;;;;;4895752;29;20470;-75
2022/08/01 02:08:23;;;;;;;6.78;5.22;;;;;;;;;;4895778;29;20033;-79
2022/08/01 02:13:38;;;;;;;5.18;4.72;;;;;;;;;;4882133;29;20044;-75
2022/08/01 02:16:05;;;;;;;5.47;4.95;;;;;;;;;;4881266;29;20434;-76
2022/08/01 02:18:32;;;;;;;6.13;4.80;;;;;;;;;;4895592;29;20029;-76
2022/08/01 02:20:59;;;;;;;5.93;5.32;;;;;;;;;;4880997;29;20515;-76
2022/08/01 02:23:27;;;;;;;6.15;5.45;;;;;;;;;;4895404;29;20447;-76
2022/08/01 02:25:54;;;;;;;5.85;5.10;;;;;;;;;;4895437;29;20029;-76
2022/08/01 02:28:28;;;;;;;5.85;5.05;;;;;;;;;;4895423;29;20065;-76
2022/08/01 02:30:55;;;;;;;6.32;5.22;;;;;;;;;;4894584;29;20486;-76
2022/08/01 02:33:31;;;;;;;6.15;5.55;;;;;;;;;;4895356;29;20030;-76
2022/08/01 02:35:59;;;;;;;7.15;5.35;;;;;;;;;;4895390;29;20517;-76
2022/08/01 02:38:27;;;;;;;6.47;4.80;;;;;;;;;;4895302;29;20060;-76
2022/08/01 02:40:57;;;;;;;5.30;4.72;;;;;;;;;;4895219;29;20029;-76
2022/08/01 02:43:25;;;;;;;7.95;5.57;;;;;;;;;;4895086;29;20060;-76
2022/08/01 02:45:53;;;;;;;6.60;5.88;;;;;;;;;;4880727;29;20029;-76
2022/08/01 02:48:20;;;;;;;6.50;5.68;;;;;;;;;;4894988;29;20063;-79
2022/08/01 02:50:48;;;;;;;7.63;5.53;;;;;;;;;;4895046;29;20115;-76
2022/08/01 02:53:15;;;;;;;6.05;5.10;;;;;;;;;;4894975;29;20033;-79
2022/08/01 02:55:44;;;;;;;6.13;5.55;;;;;;;;;;4894682;29;20391;-76
2022/08/01 02:58:12;;;;;;;6.65;6.05;;;;;;;;;;4894862;29;20497;-76
2022/08/01 03:00:40;;;;;;;6.13;5.53;;;;;;;;;;4894769;29;20040;-76
2022/08/01 03:03:07;;;;;;;6.95;5.43;;;;;;;;;;4894708;29;20041;-76
2022/08/01 03:05:33;;;;;;;6.13;5.53;;;;;;;;;;4894705;29;20485;-76
2022/08/01 03:08:01;;;;;;;5.70;5.10;;;;;;;;;;4894691;29;20069;-79
2022/08/01 03:10:28;;;;;;;5.70;5.10;;;;;;;;;;4894680;29;20391;-76
2022/08/01 03:12:55;;;;;;;5.88;5.22;;;;;;;;;;4880268;29;20467;-76
2022/08/01 03:15:22;;;;;;;6.60;5.63;;;;;;;;;;4894584;29;20068;-80
2022/08/01 03:17:50;;;;;;;6.75;5.10;;;;;;;;;;4880138;29;20116;-76
2022/08/01 03:20:18;;;;;;;6.45;5.82;;;;;;;;;;4894359;29;20124;-76
2022/08/01 03:22:45;;;;;;;7.63;5.50;;;;;;;;;;4894325;29;20045;-76
2022/08/01 03:25:13;;;;;;;5.95;5.35;;;;;;;;;;4880084;29;20036;-75
2022/08/01 03:27:40;;;;;;;7.32;6.10;;;;;;;;;;4894359;29;20554;-76
2022/08/01 03:30:07;;;;;;;7.22;5.72;;;;;;;;;;4894364;29;20025;-80
2022/08/01 03:32:34;;;;;;;8.73;5.60;;;;;;;;;;4894337;29;20025;-75
2022/08/01 03:35:00;;;;;;;6.25;5.20;;;;;;;;;;4894279;29;20029;-76
2022/08/01 03:37:26;;;;;;;7.35;5.35;;;;;;;;;;4894228;29;20403;-76
2022/08/01 03:40:05;;;;;;;7.05;5.97;;;;;;;;;;4879936;29;20025;-76
2022/08/01 03:42:36;;;;;;;7.07;4.55;;;;;;;;;;4893947;29;20143;-76
2022/08/01 03:45:09;;;;;;;6.65;5.25;;;;;;;;;;4894165;29;20039;-75
2022/08/01 03:47:35;;;;;;;6.15;5.53;;;;;;;;;;4879874;29;20437;-76
2022/08/01 03:50:03;;;;;;;6.90;5.53;;;;;;;;;;4894317;29;20360;-76
2022/08/01 03:52:30;;;;;;;7.75;5.35;;;;;;;;;;4879942;29;20092;-76
2022/08/01 03:54:58;;;;;;;7.60;6.20;;;;;;;;;;4879698;29;20468;-76
2022/08/01 03:57:25;;;;;;;7.80;6.85;;;;;;;;;;4893921;29;20029;-75
2022/08/01 03:59:52;;;;;;;8.52;7.72;;;;;;;;;;4893927;29;20451;-76
2022/08/01 04:02:18;;;;;;;9.32;7.50;;;;;;;;;;4893756;29;20039;-76
2022/08/01 04:04:45;;;;;;;8.35;7.55;;;;;;;;;;4879553;29;20479;-79
2022/08/01 04:07:25;;;;;;;11.18;9.43;;;;;;;;;;4893915;29;20033;-79
2022/08/01 04:09:51;;;;;;;8.32;7.53;;;;;;;;;;4893890;29;20029;-79
2022/08/01 04:12:18;;;;;;;8.38;7.53;;;;;;;;;;4879519;29;20431;-76
2022/08/01 04:14:45;;;;;;;9.25;8.35;;;;;;;;;;4893809;29;20440;-76
2022/08/01 04:17:11;;;;;;;10.27;8.18;;;;;;;;;;4879563;29;20395;-76
2022/08/01 04:19:37;;;;;;;8.73;7.93;;;;;;;;;;4879475;29;20497;-76
2022/08/01 04:22:03;;;;;;;9.70;8.73;;;;;;;;;;4879264;29;20059;-78
2022/08/01 04:24:31;;;;;;;7.97;7.25;;;;;;;;;;4887580;29;20030;-76
2022/08/01 04:26:59;;;;;;;9.10;7.25;;;;;;;;;;4875129;29;20033;-80
2022/08/01 04:29:25;;;;;;;8.80;7.90;;;;;;;;;;4875134;29;20093;-76
2022/08/01 04:31:56;;;;;;;7.93;7.13;;;;;;;;;;4875096;29;20034;-76
2022/08/01 04:34:25;;;;;;;7.75;6.78;;;;;;;;;;4860905;29;20556;-76
2022/08/01 04:36:53;;;;;;;7.78;6.97;;;;;;;;;;4875086;29;20068;-76
2022/08/01 04:39:19;;;;;;;10.57;6.45;;;;;;;;;;4875048;29;20081;-80
2022/08/01 04:41:46;;;;;;;7.45;6.68;;;;;;;;;;4884602;29;20451;-76
2022/08/01 04:44:13;;;;;;;7.60;6.90;;;;;;;;;;4882716;29;20075;-76
2022/08/01 04:46:40;;;;;;;7.90;7.15;;;;;;;;;;4883931;29;20033;-77
2022/08/01 04:49:11;;;;;;;7.72;6.75;;;;;;;;;;4869383;29;20033;-75
2022/08/01 04:51:50;;;;;;;7.95;6.55;;;;;;;;;;4868877;29;20018;-79
2022/08/01 04:54:16;;;;;;;8.90;6.68;;;;;;;;;;4884896;29;20033;-78
2022/08/01 04:56:43;;;;;;;8.68;6.20;;;;;;;;;;4887819;29;20486;-78
2022/08/01 05:01:57;;;;;;;8.63;6.68;;;;;;;;;;4887330;29;20161;-79
2022/08/01 05:04:23;;;;;;;7.20;5.35;;;;;;;;;;4871110;29;20105;-77
2022/08/01 05:06:49;;;;;;;9.63;6.13;;;;;;;;;;4878275;29;20068;-77
2022/08/01 05:09:15;;;;;;;8.48;5.97;;;;;;;;;;4871225;29;20399;-76
2022/08/01 05:11:41;;;;;;;8.43;5.93;;;;;;;;;;4878158;29;20025;-76
2022/08/01 05:14:07;;;;;;;6.93;6.15;;;;;;;;;;4880542;29;20032;-79
2022/08/01 05:16:34;;;;;;;8.80;6.40;;;;;;;;;;4895388;29;20494;-76
2022/08/01 05:19:00;;;;;;;7.03;6.13;;;;;;;;;;4882371;29;20029;-80
2022/08/01 05:21:26;;;;;;;6.30;5.22;;;;;;;;;;4896455;29;20052;-79
2022/08/01 05:23:52;;;;;;;7.55;5.78;;;;;;;;;;4896518;29;20490;-78
2022/08/01 05:26:18;;;;;;;7.05;5.13;;;;;;;;;;4882464;29;20025;-79
2022/08/01 05:28:44;;;;;;;8.90;5.90;;;;;;;;;;4882258;29;20033;-79
2022/08/01 05:31:10;;;;;;;10.88;5.03;;;;;;;;;;4882137;29;20386;-78
2022/08/01 05:33:36;;;;;;;6.55;4.80;;;;;;;;;;4896484;29;20036;-76
2022/08/01 05:36:03;;;;;;;5.13;4.53;;;;;;;;;;4896318;29;20025;-76
2022/08/01 05:38:29;;;;;;;8.25;5.07;;;;;;;;;;4882062;29;20161;-76
2022/08/01 05:40:55;;;;;;;7.35;5.78;;;;;;;;;;4881896;29;20040;-80
2022/08/01 05:43:21;;;;;;;5.75;4.80;;;;;;;;;;4881851;29;20546;-77
2022/08/01 05:45:48;;;;;;;8.40;4.82;;;;;;;;;;4896257;29;20021;-76
2022/08/01 05:48:14;;;;;;;6.15;4.70;;;;;;;;;;4896147;29;20479;-77
2022/08/01 05:50:40;;;;;;;6.88;4.97;;;;;;;;;;4881819;29;20025;-77
2022/08/01 05:53:06;;;;;;;7.30;5.20;;;;;;;;;;4896110;29;20033;-78
2022/08/01 05:55:32;;;;;;;7.15;4.95;;;;;;;;;;4896085;29;20021;-76
2022/08/01 05:58:00;;;;;;;6.95;4.75;;;;;;;;;;4881788;29;20125;-75
2022/08/01 06:00:26;;;;;;;7.60;5.28;;;;;;;;;;4896341;29;20032;-77
2022/08/01 06:02:52;;;;;;;6.47;4.43;;;;;;;;;;4881543;29;20064;-78
2022/08/01 06:05:19;;;;;;;7.35;5.15;;;;;;;;;;4895863;29;20487;-76
2022/08/01 06:07:45;;;;;;;5.72;4.97;;;;;;;;;;4895864;29;20039;-76
2022/08/01 06:10:11;;;;;;;7.88;5.03;;;;;;;;;;4881343;29;20029;-79
2022/08/01 06:12:38;;;;;;;8.40;5.70;;;;;;;;;;4895758;29;20037;-77
2022/08/01 06:15:05;;;;;;;7.07;5.45;;;;;;;;;;4881430;29;20091;-79
2022/08/01 06:17:31;;;;;;;5.82;4.97;;;;;;;;;;4881223;29;20040;-77
2022/08/01 06:19:57;;;;;;;7.45;5.20;;;;;;;;;;4895488;29;20033;-77
2022/08/01 06:22:23;;;;;;;5.68;5.05;;;;;;;;;;4895600;29;20040;-79
2022/08/01 06:24:49;;;;;;;6.40;4.78;;;;;;;;;;4895476;29;20177;-76
2022/08/01 06:27:15;;;;;;;7.35;5.25;;;;;;;;;;4895480;29;20036;-78
2022/08/01 06:29:42;;;;;;;10.40;5.70;;;;;;;;;;4895410;29;20530;-79
2022/08/01 06:32:09;;;;;;;7.47;5.30;;;;;;;;;;4895455;29;20029;-79
2022/08/01 06:34:36;;;;;;;5.85;5.15;;;;;;;;;;4895316;29;20185;-81
2022/08/01 06:37:02;;;;;;;5.90;4.93;;;;;;;;;;4895304;29;20032;-81
2022/08/01 06:39:28;;;;;;;10.18;5.65;;;;;;;;;;4880972;29;20037;-80
2022/08/01 06:41:54;;;;;;;6.43;4.60;;;;;;;;;;4880847;29;20081;-77
2022/08/01 06:44:20;;;;;;;7.60;5.28;;;;;;;;;;4895173;29;20045;-78
2022/08/01 06:46:46;;;;;;;7.57;5.90;;;;;;;;;;4881326;29;20051;-79
2022/08/01 06:49:12;;;;;;;5.55;5.05;;;;;;;;;;4895074;29;20035;-82
2022/08/01 06:51:39;;;;;;;7.38;5.50;;;;;;;;;;4895074;29;20032;-82
2022/08/01 06:54:05;;;;;;;9.68;5.90;;;;;;;;;;4881200;29;20036;-82
2022/08/01 06:56:31;;;;;;;8.50;5.20;;;;;;;;;;4894886;29;20077;-83
2022/08/01 06:59:00;;;;;;;7.00;5.13;;;;;;;;;;4894985;29;20403;-78
2022/08/01 07:01:27;;;;;;;5.78;4.93;;;;;;;;;;4880858;29;20069;-77
2022/08/01 07:03:54;;;;;;;7.10;4.45;;;;;;;;;;4894807;29;20128;-83
2022/08/01 07:06:20;;;;;;;5.60;4.45;;;;;;;;;;4880534;29;20028;-80
2022/08/01 07:08:46;;;;;;;5.55;4.97;;;;;;;;;;4894782;29;20037;-84
2022/08/01 07:11:12;;;;;;;7.78;4.18;;;;;;;;;;4894803;29;20028;-78
2022/08/01 07:13:39;;;;;;;6.78;4.57;;;;;;;;;;4894761;29;20059;-83
2022/08/01 07:16:05;;;;;;;5.65;4.45;;;;;;;;;;4894490;29;20115;-87
2022/08/01 07:18:31;;;;;;;7.10;4.18;;;;;;;;;;4896036;29;20514;-93
2022/08/01 07:20:58;;;;;;;8.48;5.22;;;;;;;;;;4881482;29;20144;-89
2022/08/01 07:23:24;;;;;;;5.78;4.70;;;;;;;;;;4882918;29;20079;-87
2022/08/01 07:25:52;;;;;;;6.05;4.38;;;;;;;;;;4894841;29;20025;-76
2022/08/01 07:28:18;;;;;;;6.00;5.00;;;;;;;;;;4881373;29;20416;-78
2022/08/01 07:30:44;;;;;;;7.32;4.40;;;;;;;;;;4895864;29;20036;-93
2022/08/01 07:33:11;;;;;;;5.10;4.50;;;;;;;;;;4897562;29;20020;-78
2022/08/01 07:35:38;;;;;;;6.50;4.43;;;;;;;;;;4895118;29;20128;-78
2022/08/01 07:38:04;;;;;;;5.38;4.53;;;;;;;;;;4894386;29;20451;-81
2022/08/01 07:40:31;;;;;;;6.28;5.03;;;;;;;;;;4894377;29;20033;-81
2022/08/01 07:42:57;;;;;;;5.75;3.88;;;;;;;;;;4894118;29;20463;-81
2022/08/01 07:45:23;;;;;;;6.45;4.47;;;;;;;;;;4894190;29;20033;-82
2022/08/01 07:47:49;;;;;;;6.40;4.40;;;;;;;;;;4894238;29;20029;-84
2022/08/01 07:50:15;;;;;;;8.43;4.25;;;;;;;;;;4894185;29;20116;-74
2022/08/01 07:52:42;;;;;;;6.78;4.63;;;;;;;;;;4894105;29;20036;-75
2022/08/01 07:55:09;;;;;;;7.57;4.60;;;;;;;;;;4894013;29;20029;-74
2022/08/01 07:57:35;;;;;;;4.75;4.00;;;;;;;;;;4894000;29;20479;-76
2022/08/01 08:00:03;;;;;;;7.13;4.22;;;;;;;;;;4880263;29;20029;-88
2022/08/01 08:02:29;;;;;;;8.10;4.75;;;;;;;;;;4893924;29;20398;-80
2022/08/01 08:04:55;;;;;;;4.97;3.33;;;;;;;;;;4894137;29;20029;-81
2022/08/01 08:07:21;;;;;;;4.05;3.08;;;;;;;;;;4879580;29;20447;-84
2022/08/01 08:09:47;;;;;;;5.32;3.45;;;;;;;;;;4894372;29;20029;-80
2022/08/01 08:12:13;;;;;;;4.65;2.58;;;;;;;;;;4879971;29;20107;-84
2022/08/01 08:14:39;;;;;;;5.25;3.28;;;;;;;;;;4879622;29;20033;-80
2022/08/01 08:17:05;;;;;;;5.05;3.03;;;;;;;;;;4893904;29;20375;-81
2022/08/01 08:19:33;;;;;;;4.95;2.45;;;;;;;;;;4893893;29;20033;-81
2022/08/01 08:22:00;;;;;;;4.05;2.97;;;;;;;;;;4893648;29;20049;-81
2022/08/01 08:24:26;;;;;;;6.47;3.47;;;;;;;;;;4893831;29;20037;-80
2022/08/01 08:26:56;;;;;;;4.25;3.17;;;;;;;;;;4879879;29;20033;-76
2022/08/01 08:29:22;;;;;;;5.25;2.80;;;;;;;;;;4896078;29;20085;-78
2022/08/01 08:31:50;;;;;;;3.58;2.85;;;;;;;;;;4883213;29;20036;-79
2022/08/01 08:34:17;;;;;;;3.30;2.15;;;;;;;;;;4897616;29;20080;-78
2022/08/01 08:36:43;;;;;;;4.25;2.35;;;;;;;;;;4897545;29;20025;-78
2022/08/01 08:39:09;;;;;;;5.00;2.42;;;;;;;;;;4897522;29;20033;-78
2022/08/01 08:41:36;;;;;;;5.05;2.92;;;;;;;;;;4897526;29;20040;-78
2022/08/01 08:44:06;;;;;;;2.17;1.98;;;;;;;;;;4897205;29;20398;-79
2022/08/01 08:46:33;;;;;;;3.35;2.58;;;;;;;;;;4897413;29;20025;-78
2022/08/01 08:49:01;;;;;;;2.40;1.83;;;;;;;;;;4897302;29;20120;-79
2022/08/01 08:51:28;;;;;;;3.78;1.85;;;;;;;;;;4897320;29;20025;-78
2022/08/01 08:53:55;;;;;;;2.80;2.08;;;;;;;;;;4897152;29;20447;-79
2022/08/01 08:56:23;;;;;;;2.85;1.90;;;;;;;;;;4897701;29;20036;-78
2022/08/01 08:58:50;;;;;;;4.28;2.45;;;;;;;;;;4882786;29;20036;-78
2022/08/01 09:01:17;;;;;;;3.92;1.73;;;;;;;;;;4897101;29;20025;-78
2022/08/01 09:03:44;;;;;;;2.80;1.95;;;;;;;;;;4897108;29;20498;-78
2022/08/01 09:06:10;;;;;;;4.88;2.00;;;;;;;;;;4896982;29;20065;-78
2022/08/01 09:08:37;;;;;;;3.10;2.05;;;;;;;;;;4882541;29;20036;-78
2022/08/01 09:11:04;;;;;;;4.40;2.35;;;;;;;;;;4882578;29;20033;-78
2022/08/01 09:13:30;;;;;;;8.25;2.38;;;;;;;;;;4896826;29;20482;-78
2022/08/01 09:15:59;;;;;;;4.45;1.92;;;;;;;;;;4896828;29;20025;-78
2022/08/01 09:18:30;;;;;;;5.18;2.58;;;;;;;;;;4896758;29;20448;-78
2022/08/01 09:21:11;;;;;;;3.17;2.30;;;;;;;;;;4882032;29;20045;-76
2022/08/01 09:23:42;;;;;;;3.53;2.50;;;;;;;;;;4896650;29;20056;-78
2022/08/01 09:26:08;;;;;;;4.65;2.80;;;;;;;;;;4882818;29;20084;-78
2022/08/01 09:28:34;;;;;;;5.25;3.33;;;;;;;;;;4902492;29;20132;-77
2022/08/01 09:31:16;;;;;;;3.60;2.72;;;;;;;;;;4885655;29;20367;-77
2022/08/01 09:33:54;;;;;;;5.28;3.60;;;;;;;;;;4902828;29;20043;-78
2022/08/01 09:36:40;;;;;;;5.05;2.80;;;;;;;;;;4890832;29;20112;-76
2022/08/01 09:39:12;;;;;;;4.28;2.92;;;;;;;;;;4890737;29;20502;-77
2022/08/01 09:41:39;;;;;;;7.97;2.55;;;;;;;;;;4890729;29;20637;-78
2022/08/01 09:44:12;;;;;;;6.57;3.00;;;;;;;;;;4874556;29;20074;-79
2022/08/01 09:46:49;;;;;;;3.25;2.63;;;;;;;;;;4863071;29;20097;-78
2022/08/01 09:49:15;;;;;;;3.83;2.58;;;;;;;;;;4878750;29;20029;-78
2022/08/01 09:51:41;;;;;;;3.15;2.38;;;;;;;;;;4872295;29;20502;-79
2022/08/01 09:54:11;;;;;;;5.10;2.70;;;;;;;;;;4881340;29;20051;-77
2022/08/01 09:56:39;;;;;;;3.65;2.10;;;;;;;;;;4864724;29;20025;-77
2022/08/01 09:59:05;;;;;;;4.47;2.92;;;;;;;;;;4863171;29;20038;-78
2022/08/01 10:01:45;;;;;;;3.67;2.92;;;;;;;;;;4863050;29;20030;-78
2022/08/01 10:04:22;;;;;;;6.45;3.00;;;;;;;;;;4878214;29;20047;-76
2022/08/01 10:06:52;;;;;;;4.28;3.00;;;;;;;;;;4863511;29;20030;-78
2022/08/01 10:09:27;;;;;;;5.53;3.03;;;;;;;;;;4877179;29;20490;-78
2022/08/01 10:11:55;;;;;;;5.00;3.00;;;;;;;;;;4877206;29;20037;-78
2022/08/01 10:14:22;;;;;;;3.97;2.83;;;;;;;;;;4877117;29;20424;-78
2022/08/01 10:16:48;;;;;;;6.88;3.30;;;;;;;;;;4877045;29;20034;-75
2022/08/01 10:19:15;;;;;;;5.28;3.08;;;;;;;;;;4877031;29;20053;-77
2022/08/01 10:21:41;;;;;;;5.15;2.80;;;;;;;;;;4876886;29;20049;-77
2022/08/01 10:24:09;;;;;;;5.63;2.80;;;;;;;;;;4862698;29;20038;-77
2022/08/01 10:26:36;;;;;;;3.42;2.97;;;;;;;;;;4876885;29;20026;-77
2022/08/01 10:29:03;;;;;;;5.10;2.72;;;;;;;;;;4876858;29;20060;-75
2022/08/01 10:31:32;;;;;;;8.30;2.75;;;;;;;;;;4876835;29;20502;-79
2022/08/01 10:33:59;;;;;;;5.22;3.10;;;;;;;;;;4876801;29;20480;-78
2022/08/01 10:36:26;;;;;;;3.60;2.80;;;;;;;;;;4876801;29;20058;-78
2022/08/01 10:38:53;;;;;;;6.57;2.72;;;;;;;;;;4862438;29;20104;-78
2022/08/01 10:41:19;;;;;;;5.65;2.47;;;;;;;;;;4876628;29;20530;-78
2022/08/01 10:43:45;;;;;;;5.03;2.67;;;;;;;;;;4876620;29;20486;-78
2022/08/01 10:46:11;;;;;;;3.35;2.75;;;;;;;;;;4862296;29;20150;-82
2022/08/01 10:48:47;;;;;;;3.60;2.70;;;;;;;;;;4862599;29;20093;-79
2022/08/01 10:51:16;;;;;;;5.85;2.80;;;;;;;;;;4861520;29;20022;-78
2022/08/01 10:53:51;;;;;;;5.93;2.50;;;;;;;;;;4862706;29;20026;-83
2022/08/01 10:56:17;;;;;;;5.07;2.65;;;;;;;;;;4876335;29;20029;-82
2022/08/01 10:58:44;;;;;;;4.75;2.53;;;;;;;;;;4862113;29;20113;-83
2022/08/01 11:01:13;;;;;;;6.32;2.40;;;;;;;;;;4876276;29;20029;-83
2022/08/01 11:03:39;;;;;;;3.92;2.42;;;;;;;;;;4862178;29;20048;-83
2022/08/01 11:06:06;;;;;;;2.72;2.20;;;;;;;;;;4876193;29;20033;-82
2022/08/01 11:08:36;;;;;;;3.55;2.30;;;;;;;;;;4876094;29;20081;-83
2022/08/01 11:11:03;;;;;;;4.40;2.33;;;;;;;;;;4862657;29;20108;-83
2022/08/01 11:13:52;;;;;;;2.70;1.80;;;;;;;;;;4876043;29;20066;-87
2022/08/01 11:16:29;;;;;;;5.30;2.17;;;;;;;;;;4861536;29;20048;-76
2022/08/01 11:18:55;;;;;;;4.22;1.92;;;;;;;;;;4875949;29;20037;-74
2022/08/01 11:21:23;;;;;;;2.70;1.75;;;;;;;;;;4875638;29;20057;-74
2022/08/01 11:23:53;;;;;;;3.28;1.75;;;;;;;;;;4875780;29;20034;-75
2022/08/01 11:26:20;;;;;;;2.53;1.50;;;;;;;;;;4876947;29;20375;-76
2022/08/01 11:29:07;;;;;;;2.90;1.60;;;;;;;;;;4875743;29;20026;-78
2022/08/01 11:31:34;;;;;;;2.13;1.52;;;;;;;;;;4862023;29;20371;-74
2022/08/01 11:34:00;;;;;;;4.40;2.08;;;;;;;;;;4875717;29;20036;-75
2022/08/01 11:36:27;;;;;;;3.10;1.60;;;;;;;;;;4875687;29;20033;-75
2022/08/01 11:38:59;;;;;;;3.45;1.10;;;;;;;;;;4875635;29;20029;-75
2022/08/01 11:41:26;;;;;;;3.95;1.23;;;;;;;;;;4875562;29;20034;-78
2022/08/01 11:43:59;;;;;;;1.83;1.10;;;;;;;;;;4875512;29;20411;-74
2022/08/01 11:46:44;;;;;;;5.10;1.73;;;;;;;;;;4875526;29;20041;-76
2022/08/01 11:49:28;;;;;;;2.03;1.20;;;;;;;;;;4875570;29;20033;-78
2022/08/01 11:52:07;;;;;;;2.42;1.30;;;;;;;;;;4875614;29;20034;-78
2022/08/01 11:54:34;;;;;;;2.92;1.40;;;;;;;;;;4875463;29;20030;-75
2022/08/01 11:57:01;;;;;;;6.43;1.67;;;;;;;;;;4861203;29;20030;-75
2022/08/01 11:59:28;;;;;;;2.75;1.50;;;;;;;;;;4875435;29;20065;-76
2022/08/01 12:01:54;;;;;;;4.18;1.40;;;;;;;;;;4875365;29;20029;-76
2022/08/01 12:04:20;;;;;;;2.65;1.45;;;;;;;;;;4875328;29;20041;-81
2022/08/01 12:06:47;;;;;;;6.47;2.17;;;;;;;;;;4875395;29;20068;-78
2022/08/01 12:09:20;;;;;;;7.70;2.25;;;;;;;;;;4875382;29;20387;-78
2022/08/01 12:11:47;;;;;;;3.80;1.60;;;;;;;;;;4875695;29;20022;-78
2022/08/01 12:14:20;;;;;;;2.03;1.50;;;;;;;;;;4875410;29;20036;-77
2022/08/01 12:16:53;;;;;;;3.53;1.90;;;;;;;;;;4875604;29;20036;-77
2022/08/01 12:19:24;;;;;;;4.15;1.58;;;;;;;;;;4876262;29;20033;-96
2022/08/01 12:22:09;;;;;;;3.25;1.73;;;;;;;;;;4876998;29;20062;-96
2022/08/01 12:24:41;;;;;;;14.20;3.90;;;;;;;;;;4865754;29;20113;-85
2022/08/01 12:27:09;;;;;;;5.10;1.88;;;;;;;;;;4864602;29;20013;-84
2022/08/01 12:29:35;;;;;;;4.03;1.70;;;;;;;;;;4876056;29;20040;-87
2022/08/01 12:32:02;;;;;;;8.07;1.92;;;;;;;;;;4875377;29;20030;-79
2022/08/01 12:34:28;;;;;;;4.10;1.70;;;;;;;;;;4875264;29;20025;-89
2022/08/01 12:36:59;;;;;;;2.75;1.65;;;;;;;;;;4875656;29;20124;-85
2022/08/01 12:39:35;;;;;;;2.63;1.50;;;;;;;;;;4875495;29;20467;-87
2022/08/01 12:42:02;;;;;;;5.18;1.42;;;;;;;;;;4875225;29;20551;-80
2022/08/01 12:44:29;;;;;;;2.45;1.60;;;;;;;;;;4875396;29;20124;-79
2022/08/01 12:46:56;;;;;;;21.88;4.50;;;;;;;;;;4860770;29;20472;-80
2022/08/01 12:49:22;;;;;;;74.60;10.80;;;;;;;;;;4874926;29;20419;-77
2022/08/01 12:51:49;;;;;;;4.25;1.70;;;;;;;;;;4875048;29;20026;-81
2022/08/01 12:54:15;;;;;;;9.98;2.00;;;;;;;;;;4874940;29;20120;-84
2022/08/01 12:56:41;;;;;;;235.00;36.85;;;;;;;;;;4874858;29;20021;-77
2022/08/01 12:59:20;;;;;;;28.90;4.78;;;;;;;;;;4874909;29;20495;-79
2022/08/01 13:01:48;;;;;;;2.67;1.25;;;;;;;;;;4874883;29;20571;-80
2022/08/01 13:04:14;;;;;;;30.75;4.45;;;;;;;;;;4860667;29;20181;-81
2022/08/01 13:06:41;;;;;;;137.48;21.15;;;;;;;;;;4875146;29;20036;-78
2022/08/01 13:09:11;;;;;;;9.77;2.42;;;;;;;;;;4874801;29;20034;-78
2022/08/01 13:11:37;;;;;;;52.75;7.97;;;;;;;;;;4871688;29;20049;-79
2022/08/01 13:14:03;;;;;;;3.97;1.40;;;;;;;;;;4874710;29;20038;-79
2022/08/01 13:16:30;;;;;;;3.17;1.20;;;;;;;;;;4878043;29;20052;-79
2022/08/01 13:18:56;;;;;;;2.80;1.20;;;;;;;;;;4878098;29;20124;-76
2022/08/01 13:21:24;;;;;;;7.15;1.63;;;;;;;;;;4877895;29;20060;-76
2022/08/01 13:24:01;;;;;;;6.85;1.80;;;;;;;;;;4877939;29;20093;-80
2022/08/01 13:26:46;;;;;;;5.68;1.67;;;;;;;;;;4863872;29;20025;-77
2022/08/01 13:29:13;;;;;;;18.95;3.47;;;;;;;;;;4885595;29;20056;-77
2022/08/01 13:31:41;;;;;;;27.95;5.82;;;;;;;;;;4881508;29;20406;-77
2022/08/01 13:34:07;;;;;;;2.45;1.30;;;;;;;;;;4896378;29;20390;-78
2022/08/01 13:36:33;;;;;;;1.85;1.20;;;;;;;;;;4882106;29;20394;-79
2022/08/01 13:41:45;;;;;;;3.00;1.50;;;;;;;;;;4882351;29;20035;-79
2022/08/01 13:44:11;;;;;;;2.83;1.30;;;;;;;;;;4881088;29;20037;-79
2022/08/01 13:46:41;;;;;;;2.10;1.30;;;;;;;;;;4881278;29;20490;-78
2022/08/01 13:49:08;;;;;;;2.53;1.30;;;;;;;;;;4881035;29;20037;-79
2022/08/01 13:51:34;;;;;;;3.08;1.25;;;;;;;;;;4903572;29;20081;-81
2022/08/01 13:54:00;;;;;;;2.25;1.58;;;;;;;;;;4873073;29;20029;-79
2022/08/01 13:56:27;;;;;;;6.85;1.60;;;;;;;;;;4865279;29;20475;-77
2022/08/01 13:58:54;;;;;;;2.35;1.20;;;;;;;;;;4863104;29;20037;-78
2022/08/01 14:01:20;;;;;;;4.10;1.38;;;;;;;;;;4875809;29;20029;-85
2022/08/01 14:03:46;;;;;;;2.20;1.00;;;;;;;;;;4896070;29;20121;-77
2022/08/01 14:06:13;;;;;;;1.85;1.10;;;;;;;;;;4895909;29;20049;-83
2022/08/01 14:08:40;;;;;;;2.25;1.10;;;;;;;;;;4895931;29;20041;-76
2022/08/01 14:11:06;;;;;;;9.20;6.13;;;;;;;;;;4895118;29;20463;-76
2022/08/01 14:13:33;;;;;;;12.27;9.27;;;;;;;;;;4868424;29;20035;-77
2022/08/01 14:15:59;;;;;;;38.95;32.70;;;;;;;;;;4877198;29;20029;-77
2022/08/01 14:18:26;;;;;;;2.53;1.52;;;;;;;;;;4877149;29;20101;-78
2022/08/01 14:20:52;;;;;;;4.60;2.50;;;;;;;;;;4863035;29;20064;-78
2022/08/01 14:23:18;;;;;;;3.03;1.20;;;;;;;;;;4877055;29;20045;-78
2022/08/01 14:25:44;;;;;;;64.40;17.33;;;;;;;;;;4861979;29;20037;-77
2022/08/01 14:28:10;;;;;;;45.15;9.50;;;;;;;;;;4862813;29;20494;-77
2022/08/01 14:30:37;;;;;;;100.53;8.70;;;;;;;;;;4876937;29;20028;-77
2022/08/01 14:33:04;;;;;;;17.48;2.40;;;;;;;;;;4876892;29;20468;-78
2022/08/01 14:35:31;;;;;;;46.60;6.47;;;;;;;;;;4862563;29;20026;-77
2022/08/01 14:37:57;;;;;;;4.53;1.70;;;;;;;;;;4862668;29;20040;-76
2022/08/01 14:40:23;;;;;;;154.90;27.55;;;;;;;;;;4862671;29;20048;-76
2022/08/01 14:42:49;;;;;;;20.85;15.90;;;;;;;;;;4862633;29;20121;-80
2022/08/01 14:45:15;;;;;;;5.32;1.40;;;;;;;;;;4876758;29;20451;-78
2022/08/01 14:47:42;;;;;;;5.72;1.60;;;;;;;;;;4876759;29;20033;-79
2022/08/01 14:50:10;;;;;;;3.20;1.27;;;;;;;;;;4862455;29;20593;-77
2022/08/01 14:52:37;;;;;;;4.78;2.65;;;;;;;;;;4862596;29;20033;-77